www.bettendroffer.lu
Wetterdaten: Woche 26.12.05 - 01.01.06 (KW52)
Datum Zeit Temp. 1 ext. Temp. 3 Feuchte 1 Feuchte 3 Luftdruck Regen Wind Richtung T Temp. 1 ex Taupunkt Windchill
26.12.2005 00:00 -3,7 C -4,3 C 88 % 87 % 1013 hPa 0,0 l/m 0,0 km/h (0 Bft) N 0,00 h -5,4 C -3,7 C
26.12.2005 01:00 -2,7 C -3,3 C 90 % 89 % 1012 hPa 0,0 l/m 0,0 km/h (0 Bft) N 0,00 h -4,1 C -2,7 C
26.12.2005 02:00 -1,9 C -2,3 C 92 % 92 % 1012 hPa 0,0 l/m 0,0 km/h (0 Bft) N 0,00 h -3,0 C -1,9 C
26.12.2005 03:00 -1,5 C -1,9 C 92 % 92 % 1011 hPa 0,0 l/m 0,0 km/h (0 Bft) N 0,00 h -2,6 C -1,5 C
26.12.2005 04:00 -1,3 C -1,7 C 92 % 93 % 1011 hPa 0,0 l/m 0,0 km/h (0 Bft) N 0,00 h -2,4 C -1,3 C
26.12.2005 05:00 -1,1 C -1,5 C 92 % 93 % 1010 hPa 0,0 l/m 0,0 km/h (0 Bft) N 0,00 h -2,2 C -1,1 C
26.12.2005 06:00 -0,8 C -1,1 C 92 % 93 % 1009 hPa 0,0 l/m 0,0 km/h (0 Bft) N 0,00 h -1,9 C -0,8 C
26.12.2005 07:00 -0,3 C -0,5 C 92 % 94 % 1009 hPa 0,0 l/m 0,0 km/h (0 Bft) N 0,00 h -1,4 C -0,3 C
26.12.2005 08:00 0,1 C -0,3 C 92 % 94 % 1008 hPa 0,0 l/m 0,0 km/h (0 Bft) N 0,75 h -1,0 C 0,1 C
26.12.2005 09:00 0,7 C 0,4 C 92 % 94 % 1008 hPa 0,0 l/m 0,0 km/h (0 Bft) N 1,00 h -0,4 C 0,7 C
26.12.2005 10:00 1,3 C 1,2 C 90 % 93 % 1007 hPa 0,0 l/m 0,0 km/h (0 Bft) N 1,00 h -0,2 C 1,3 C
26.12.2005 11:00 2,5 C 3,7 C 83 % 80 % 1007 hPa 0,0 l/m 0,0 km/h (0 Bft) N 1,00 h -0,2 C 2,5 C
26.12.2005 12:00 4,1 C 4,4 C 62 % 63 % 1006 hPa 0,0 l/m 0,0 km/h (0 Bft) N 1,00 h -2,6 C 4,1 C
26.12.2005 13:00 2,4 C 1,7 C 69 % 75 % 1005 hPa 0,4 l/m 0,0 km/h (0 Bft) N 1,00 h -2,8 C 2,4 C
26.12.2005 14:00 2,6 C 1,5 C 78 % 84 % 1005 hPa 0,0 l/m 0,0 km/h (0 Bft) N 1,00 h -1,0 C 2,6 C
26.12.2005 15:00 2,4 C 1,5 C 76 % 81 % 1004 hPa 0,0 l/m 0,0 km/h (0 Bft) N 1,00 h -1,5 C 2,4 C
26.12.2005 16:00 -0,0 C -0,8 C 81 % 85 % 1004 hPa 0,0 l/m 0,0 km/h (0 Bft) N 0,25 h -3,0 C -0,0 C
26.12.2005 17:00 -0,9 C -1,6 C 87 % 88 % 1003 hPa 0,0 l/m 0,0 km/h (0 Bft) N 0,00 h -2,9 C -0,9 C
26.12.2005 18:00 -1,2 C -1,8 C 89 % 90 % 1003 hPa 0,0 l/m 0,0 km/h (0 Bft) N 0,00 h -2,9 C -1,2 C
26.12.2005 19:00 -1,1 C -1,5 C 91 % 92 % 1003 hPa 0,0 l/m 0,0 km/h (0 Bft) N 0,00 h -2,4 C -1,1 C
26.12.2005 20:00 -1,1 C -1,6 C 92 % 92 % 1002 hPa 0,0 l/m 0,0 km/h (0 Bft) N 0,00 h -2,3 C -1,1 C
26.12.2005 21:00 -0,9 C -1,3 C 93 % 93 % 1002 hPa 0,0 l/m 0,0 km/h (0 Bft) N 0,00 h -2,0 C -0,9 C
26.12.2005 22:00 -1,0 C -1,4 C 89 % 91 % 1002 hPa 0,0 l/m 0,0 km/h (0 Bft) N 0,00 h -2,6 C -1,0 C
26.12.2005 23:00 -1,5 C -1,9 C 84 % 87 % 1002 hPa 0,0 l/m 0,0 km/h (0 Bft) N 0,00 h -3,9 C -1,5 C
27.12.2005 00:00 -2,4 C -2,8 C 74 % 78 % 1002 hPa 0,0 l/m 0,0 km/h (0 Bft) N 0,00 h -6,4 C -2,4 C
27.12.2005 01:00 -3,1 C -3,7 C 69 % 73 % 1002 hPa 0,0 l/m 0,0 km/h (0 Bft) N 0,00 h -8,0 C -3,1 C
27.12.2005 02:00 -4,0 C -4,7 C 72 % 75 % 1002 hPa 0,0 l/m 0,0 km/h (0 Bft) N 0,00 h -8,3 C -4,0 C
27.12.2005 03:00 -3,8 C -4,6 C 73 % 75 % 1001 hPa 0,0 l/m 0,0 km/h (0 Bft) N 0,00 h -7,9 C -3,8 C
27.12.2005 04:00 -4,4 C -5,0 C 72 % 74 % 1001 hPa 0,0 l/m 0,0 km/h (0 Bft) N 0,00 h -8,7 C -4,4 C
27.12.2005 05:00 -5,6 C -6,4 C 75 % 77 % 1000 hPa 0,0 l/m 0,0 km/h (0 Bft) N 0,00 h -9,4 C -5,6 C
27.12.2005 06:00 -5,2 C -6,1 C 80 % 81 % 1000 hPa 0,0 l/m 0,0 km/h (0 Bft) N 0,00 h -8,2 C -5,2 C
27.12.2005 07:00 -5,1 C -6,1 C 80 % 82 % 1000 hPa 0,0 l/m 0,0 km/h (0 Bft) N 0,00 h -8,0 C -5,1 C
27.12.2005 08:00 -6,0 C -6,9 C 81 % 81 % 1000 hPa 0,0 l/m 0,0 km/h (0 Bft) N 0,00 h -8,8 C -6,0 C
27.12.2005 09:00 -6,5 C -7,3 C 80 % 80 % 1000 hPa 0,0 l/m 0,0 km/h (0 Bft) N 0,00 h -9,3 C -6,5 C
27.12.2005 10:00 -4,6 C -4,9 C 83 % 83 % 1000 hPa 0,0 l/m 0,0 km/h (0 Bft) N 0,00 h -6,9 C -4,6 C
27.12.2005 11:00 -2,7 C -3,0 C 71 % 75 % 1000 hPa 0,0 l/m 0,0 km/h (0 Bft) N 0,00 h -7,3 C -2,7 C
27.12.2005 12:00 -1,8 C -1,9 C 58 % 64 % 999 hPa 0,0 l/m 0,0 km/h (0 Bft) N 0,00 h -9,0 C -1,8 C
27.12.2005 13:00 -1,9 C -2,2 C 64 % 68 % 999 hPa 0,0 l/m 0,0 km/h (0 Bft) N 0,00 h -7,9 C -1,9 C
27.12.2005 14:00 -1,8 C -2,1 C 68 % 72 % 999 hPa 0,0 l/m 0,0 km/h (0 Bft) N 0,00 h -7,0 C -1,8 C
27.12.2005 15:00 -2,1 C -2,3 C 74 % 77 % 998 hPa 0,0 l/m 0,0 km/h (0 Bft) N 0,00 h -6,1 C -2,1 C
27.12.2005 16:00 -2,3 C -2,6 C 81 % 83 % 999 hPa 0,0 l/m 0,0 km/h (0 Bft) N 0,00 h -5,1 C -2,3 C
27.12.2005 17:00 -2,3 C -2,6 C 83 % 85 % 999 hPa 0,0 l/m 0,0 km/h (0 Bft) N 0,00 h -4,8 C -2,3 C
27.12.2005 18:00 -2,2 C -2,4 C 83 % 84 % 999 hPa 0,0 l/m 0,0 km/h (0 Bft) N 0,00 h -4,7 C -2,2 C
27.12.2005 19:00 -2,0 C -2,4 C 81 % 83 % 999 hPa 0,0 l/m 0,0 km/h (0 Bft) N 0,00 h -4,8 C -2,0 C
27.12.2005 20:00 -2,0 C -2,4 C 83 % 84 % 999 hPa 0,0 l/m 0,0 km/h (0 Bft) N 0,00 h -4,6 C -2,0 C
27.12.2005 21:00 -2,0 C -2,4 C 84 % 85 % 999 hPa 0,0 l/m 0,0 km/h (0 Bft) N 0,00 h -4,5 C -2,0 C
27.12.2005 22:00 -2,3 C -2,6 C 84 % 85 % 1000 hPa 0,0 l/m 0,0 km/h (0 Bft) N 0,00 h -4,6 C -2,3 C
27.12.2005 23:00 -2,3 C -2,6 C 82 % 83 % 1000 hPa 0,0 l/m 0,0 km/h (0 Bft) N 0,00 h -4,9 C -2,3 C
28.12.2005 00:00 -2,3 C -2,6 C 81 % 82 % 1000 hPa 0,0 l/m 0,0 km/h (0 Bft) N 0,00 h -5,1 C -2,3 C
28.12.2005 01:00 -2,4 C -2,8 C 81 % 82 % 1000 hPa 0,0 l/m 0,0 km/h (0 Bft) N 0,00 h -5,3 C -2,4 C
28.12.2005 02:00 -3,0 C -3,5 C 82 % 84 % 1000 hPa 0,0 l/m 0,0 km/h (0 Bft) N 0,00 h -5,7 C -3,0 C
28.12.2005 03:00 -2,9 C -3,5 C 84 % 85 % 1000 hPa 0,0 l/m 0,0 km/h (0 Bft) N 0,00 h -5,2 C -2,9 C
28.12.2005 04:00 -2,7 C -3,0 C 84 % 85 % 1000 hPa 0,0 l/m 0,0 km/h (0 Bft) N 0,00 h -5,1 C -2,7 C
28.12.2005 05:00 -2,8 C -3,3 C 84 % 85 % 1000 hPa 0,0 l/m 0,0 km/h (0 Bft) N 0,00 h -5,1 C -2,8 C
28.12.2005 06:00 -3,3 C -3,7 C 84 % 86 % 1000 hPa 0,0 l/m 0,0 km/h (0 Bft) N 0,00 h -5,6 C -3,3 C
28.12.2005 07:00 -3,3 C -3,8 C 84 % 86 % 1000 hPa 0,0 l/m 0,0 km/h (0 Bft) N 0,00 h -5,6 C -3,3 C
28.12.2005 08:00 -3,3 C -3,8 C 84 % 85 % 1001 hPa 0,0 l/m 0,0 km/h (0 Bft) N 0,00 h -5,6 C -3,3 C
28.12.2005 09:00 -3,0 C -3,3 C 84 % 85 % 1001 hPa 0,0 l/m 0,0 km/h (0 Bft) N 0,00 h -5,3 C -3,0 C
28.12.2005 10:00 -2,1 C -2,5 C 80 % 82 % 1001 hPa 0,0 l/m 0,0 km/h (0 Bft) N 0,00 h -5,1 C -2,1 C
28.12.2005 11:00 -1,2 C -1,4 C 72 % 75 % 1002 hPa 0,0 l/m 0,0 km/h (0 Bft) N 0,00 h -5,5 C -1,2 C
28.12.2005 12:00 -0,6 C -1,0 C 65 % 70 % 1002 hPa 0,0 l/m 0,0 km/h (0 Bft) N 0,00 h -6,4 C -0,6 C
28.12.2005 13:00 -0,2 C -1,2 C 62 % 67 % 1002 hPa 0,0 l/m 0,0 km/h (0 Bft) N 0,25 h -6,8 C -0,2 C
28.12.2005 14:00 -0,5 C -0,9 C 62 % 67 % 1002 hPa 0,0 l/m 0,0 km/h (0 Bft) N 0,25 h -7,0 C -0,5 C
28.12.2005 15:00 -0,5 C -1,8 C 65 % 68 % 1002 hPa 0,0 l/m 0,0 km/h (0 Bft) N 0,25 h -6,2 C -0,5 C
28.12.2005 16:00 -0,4 C -1,7 C 65 % 70 % 1002 hPa 0,0 l/m 0,0 km/h (0 Bft) N 0,50 h -6,2 C -0,4 C
28.12.2005 17:00 -2,3 C -2,8 C 76 % 79 % 1003 hPa 0,0 l/m 0,0 km/h (0 Bft) N 0,00 h -5,9 C -2,3 C
28.12.2005 18:00 -2,8 C -3,3 C 74 % 77 % 1003 hPa 0,0 l/m 0,0 km/h (0 Bft) N 0,00 h -6,9 C -2,8 C
28.12.2005 19:00 -3,2 C -3,8 C 71 % 74 % 1004 hPa 0,0 l/m 0,0 km/h (0 Bft) N 0,00 h -7,8 C -3,2 C
28.12.2005 20:00 -4,6 C -5,5 C 72 % 75 % 1004 hPa 0,0 l/m 0,0 km/h (0 Bft) N 0,00 h -8,9 C -4,6 C
28.12.2005 21:00 -4,9 C -5,7 C 76 % 78 % 1005 hPa 0,0 l/m 0,0 km/h (0 Bft) N 0,00 h -8,5 C -4,9 C
28.12.2005 22:00 -4,6 C -5,4 C 77 % 79 % 1005 hPa 0,0 l/m 0,0 km/h (0 Bft) N 0,00 h -7,9 C -4,6 C
28.12.2005 23:00 -5,8 C -6,9 C 77 % 78 % 1005 hPa 0,0 l/m 0,0 km/h (0 Bft) N 0,00 h -9,3 C -5,8 C
29.12.2005 00:00 -5,9 C -6,6 C 78 % 80 % 1005 hPa 0,0 l/m 0,0 km/h (0 Bft) N 0,00 h -9,2 C -5,9 C
29.12.2005 01:00 -8,1 C -8,9 C 77 % 78 % 1005 hPa 0,0 l/m 0,0 km/h (0 Bft) N 0,00 h -11,5 C -8,1 C
29.12.2005 02:00 -9,8 C -10,5 C 76 % 78 % 1006 hPa 0,0 l/m 0,0 km/h (0 Bft) N 0,00 h -13,2 C -9,8 C
29.12.2005 03:00 -9,2 C -9,9 C 78 % 79 % 1006 hPa 0,0 l/m 0,0 km/h (0 Bft) N 0,00 h -12,3 C -9,2 C
29.12.2005 04:00 -8,0 C -8,6 C 80 % 80 % 1007 hPa 0,0 l/m 0,0 km/h (0 Bft) N 0,00 h -10,8 C -8,0 C
29.12.2005 05:00 -7,0 C -7,5 C 81 % 81 % 1007 hPa 0,0 l/m 0,0 km/h (0 Bft) N 0,00 h -9,8 C -7,0 C
29.12.2005 06:00 -7,1 C -7,6 C 80 % 80 % 1007 hPa 0,0 l/m 0,0 km/h (0 Bft) N 0,00 h -9,9 C -7,1 C
29.12.2005 07:00 -6,2 C -6,7 C 81 % 81 % 1007 hPa 0,0 l/m 0,0 km/h (0 Bft) N 0,00 h -8,9 C -6,2 C
29.12.2005 08:00 -5,7 C -6,2 C 80 % 81 % 1007 hPa 0,0 l/m 0,0 km/h (0 Bft) N 0,00 h -8,6 C -5,7 C
29.12.2005 09:00 -4,8 C -5,0 C 73 % 77 % 1008 hPa 0,0 l/m 0,0 km/h (0 Bft) N 0,00 h -8,9 C -4,8 C
29.12.2005 10:00 -4,3 C -4,4 C 67 % 70 % 1008 hPa 0,0 l/m 0,0 km/h (0 Bft) N 0,00 h -9,5 C -4,3 C
29.12.2005 11:00 -3,4 C -2,5 C 64 % 63 % 1009 hPa 0,0 l/m 0,0 km/h (0 Bft) N 0,00 h -9,3 C -3,4 C
29.12.2005 12:00 -0,5 C -0,7 C 49 % 53 % 1008 hPa 0,0 l/m 0,0 km/h (0 Bft) N 0,25 h -10,2 C -0,5 C
29.12.2005 13:00 4,3 C 1,6 C 32 % 44 % 1008 hPa 0,0 l/m 0,0 km/h (0 Bft) N 1,00 h -10,9 C 4,3 C
29.12.2005 14:00 4,3 C 2,0 C 32 % 40 % 1008 hPa 0,0 l/m 0,0 km/h (0 Bft) N 1,00 h -10,9 C 4,3 C
29.12.2005 15:00 4,3 C -2,6 C 32 % 57 % 1009 hPa 0,0 l/m 0,0 km/h (0 Bft) N 1,00 h -10,9 C 4,3 C
29.12.2005 16:00 -1,8 C -4,0 C 61 % 70 % 1009 hPa 0,0 l/m 0,0 km/h (0 Bft) N 0,25 h -9,0 C -1,8 C
29.12.2005 17:00 -3,7 C -4,0 C 74 % 73 % 1009 hPa 0,0 l/m 0,0 km/h (0 Bft) N 0,00 h -7,7 C -3,7 C
29.12.2005 18:00 -3,7 C -3,9 C 75 % 74 % 1009 hPa 0,0 l/m 0,0 km/h (0 Bft) N 0,00 h -7,6 C -3,7 C
29.12.2005 19:00 -3,7 C -3,9 C 74 % 74 % 1009 hPa 0,0 l/m 0,0 km/h (0 Bft) N 0,00 h -7,7 C -3,7 C
29.12.2005 20:00 -4,0 C -4,1 C 76 % 76 % 1010 hPa 0,0 l/m 0,0 km/h (0 Bft) N 0,00 h -7,6 C -4,0 C
29.12.2005 21:00 -4,1 C -4,3 C 80 % 79 % 1010 hPa 0,0 l/m 0,0 km/h (0 Bft) N 0,00 h -7,0 C -4,1 C
29.12.2005 22:00 -3,9 C -4,1 C 80 % 79 % 1010 hPa 0,0 l/m 0,0 km/h (0 Bft) N 0,00 h -6,8 C -3,9 C
29.12.2005 23:00 -3,7 C -3,8 C 81 % 79 % 1010 hPa 0,0 l/m 0,0 km/h (0 Bft) N 0,00 h -6,5 C -3,7 C
30.12.2005 00:00 -3,5 C -3,7 C 81 % 80 % 1010 hPa 0,0 l/m 0,0 km/h (0 Bft) N 0,00 h -6,3 C -3,5 C
30.12.2005 01:00 -3,4 C -3,6 C 82 % 80 % 1010 hPa 0,0 l/m 0,0 km/h (0 Bft) N 0,00 h -6,1 C -3,4 C
30.12.2005 02:00 -3,4 C -3,5 C 82 % 81 % 1010 hPa 0,0 l/m 0,0 km/h (0 Bft) N 0,00 h -6,0 C -3,4 C
30.12.2005 03:00 -3,3 C -3,5 C 82 % 80 % 1010 hPa 0,0 l/m 0,0 km/h (0 Bft) N 0,00 h -6,0 C -3,3 C
30.12.2005 04:00 -3,4 C -3,6 C 81 % 79 % 1010 hPa 0,0 l/m 0,0 km/h (0 Bft) N 0,00 h -6,2 C -3,4 C
30.12.2005 05:00 -3,4 C -3,6 C 80 % 79 % 1010 hPa 0,0 l/m 0,0 km/h (0 Bft) N 0,00 h -6,4 C -3,4 C
30.12.2005 06:00 -3,8 C -4,1 C 78 % 78 % 1010 hPa 0,0 l/m 0,0 km/h (0 Bft) N 0,00 h -7,1 C -3,8 C
30.12.2005 07:00 -4,2 C -4,5 C 79 % 79 % 1010 hPa 0,0 l/m 0,0 km/h (0 Bft) N 0,00 h -7,3 C -4,2 C
30.12.2005 08:00 -4,7 C -5,0 C 78 % 77 % 1010 hPa 0,0 l/m 0,0 km/h (0 Bft) N 0,00 h -7,9 C -4,7 C
30.12.2005 09:00 -4,8 C -4,8 C 78 % 78 % 1010 hPa 0,0 l/m 0,0 km/h (0 Bft) N 0,00 h -8,1 C -4,8 C
30.12.2005 10:00 -4,6 C -3,6 C 71 % 68 % 1010 hPa 0,0 l/m 0,0 km/h (0 Bft) N 0,00 h -9,2 C -4,6 C
30.12.2005 11:00 -3,8 C -2,6 C 64 % 60 % 1009 hPa 0,0 l/m 0,0 km/h (0 Bft) N 0,00 h -9,7 C -3,8 C
30.12.2005 12:00 -2,9 C -2,3 C 61 % 60 % 1007 hPa 0,0 l/m 0,0 km/h (0 Bft) N 0,00 h -9,3 C -2,9 C
30.12.2005 13:00 -3,1 C -2,5 C 61 % 59 % 1007 hPa 0,0 l/m 0,0 km/h (0 Bft) N 0,00 h -9,6 C -3,1 C
30.12.2005 14:00 -2,9 C -2,5 C 58 % 58 % 1005 hPa 0,0 l/m 0,0 km/h (0 Bft) N 0,00 h -9,9 C -2,9 C
30.12.2005 15:00 -2,9 C -3,0 C 56 % 58 % 1004 hPa 0,0 l/m 0,0 km/h (0 Bft) N 0,00 h -10,5 C -2,9 C
30.12.2005 16:00 -2,8 C -2,9 C 51 % 55 % 1002 hPa 0,0 l/m 0,0 km/h (0 Bft) N 0,00 h -11,4 C -2,8 C
30.12.2005 17:00 -2,5 C -2,7 C 49 % 52 % 1001 hPa 0,0 l/m 0,0 km/h (0 Bft) N 0,00 h -11,7 C -2,5 C
30.12.2005 18:00 -3,6 C -3,7 C 69 % 67 % 1001 hPa 0,0 l/m 0,0 km/h (0 Bft) N 0,00 h -8,6 C -3,6 C
30.12.2005 19:00 -4,2 C -4,2 C 85 % 78 % 999 hPa 0,0 l/m 0,0 km/h (0 Bft) N 0,00 h -6,4 C -4,2 C
30.12.2005 20:00 -3,8 C -3,8 C 83 % 78 % 998 hPa 0,0 l/m 0,0 km/h (0 Bft) N 0,00 h -6,3 C -3,8 C
30.12.2005 21:00 -3,5 C -3,5 C 81 % 78 % 996 hPa 0,0 l/m 0,0 km/h (0 Bft) N 0,00 h -6,2 C -3,5 C
30.12.2005 22:00 -2,8 C -2,9 C 81 % 79 % 995 hPa 0,0 l/m 0,1 km/h (0 Bft) N 0,00 h -5,6 C -2,8 C
30.12.2005 23:00 -2,1 C -2,1 C 86 % 82 % 995 hPa 0,0 l/m 0,0 km/h (0 Bft) N 0,00 h -4,2 C -2,1 C
31.12.2005 00:00 -1,4 C -1,4 C 88 % 84 % 995 hPa 0,0 l/m 0,0 km/h (0 Bft) N 0,00 h -3,1 C -1,4 C
31.12.2005 01:00 -1,1 C -1,3 C 91 % 87 % 994 hPa 0,0 l/m 0,0 km/h (0 Bft) N 0,00 h -2,5 C -1,1 C
31.12.2005 02:00 -0,6 C -0,7 C 93 % 90 % 995 hPa 0,0 l/m 0,0 km/h (0 Bft) N 0,00 h -1,6 C -0,6 C
31.12.2005 03:00 -0,0 C -0,1 C 95 % 92 % 995 hPa 0,0 l/m 0,0 km/h (0 Bft) N 0,27 h -0,7 C -0,0 C
31.12.2005 04:00 0,9 C 0,9 C 95 % 94 % 995 hPa 0,0 l/m 0,0 km/h (0 Bft) N 1,00 h 0,2 C 0,9 C
31.12.2005 05:00 1,8 C 1,7 C 95 % 94 % 995 hPa 0,0 l/m 0,0 km/h (0 Bft) N 1,00 h 1,1 C 1,8 C
31.12.2005 06:00 3,2 C 2,8 C 95 % 95 % 995 hPa 0,0 l/m 0,0 km/h (0 Bft) N 1,00 h 2,5 C 3,2 C
31.12.2005 07:00 3,6 C 3,4 C 95 % 95 % 995 hPa 0,0 l/m 0,0 km/h (0 Bft) N 1,00 h 2,9 C 3,6 C
31.12.2005 08:00 3,9 C 3,7 C 95 % 95 % 995 hPa 0,0 l/m 0,0 km/h (0 Bft) N 1,00 h 3,2 C 3,9 C
31.12.2005 09:00 4,3 C 4,1 C 95 % 95 % 995 hPa 0,0 l/m 0,0 km/h (0 Bft) N 1,00 h 3,5 C 4,3 C
31.12.2005 10:00 5,1 C 5,0 C 95 % 95 % 995 hPa 0,0 l/m 0,0 km/h (0 Bft) N 1,00 h 4,2 C 5,1 C
31.12.2005 11:00 5,3 C 5,2 C 89 % 91 % 995 hPa 0,0 l/m 0,0 km/h (0 Bft) N 1,00 h 3,6 C 5,3 C
31.12.2005 12:00 5,5 C 5,4 C 83 % 84 % 994 hPa 0,0 l/m 0,0 km/h (0 Bft) N 1,00 h 2,9 C 5,5 C
31.12.2005 13:00 5,5 C 5,4 C 80 % 80 % 994 hPa 0,0 l/m 0,0 km/h (0 Bft) N 1,00 h 2,3 C 5,5 C
31.12.2005 14:00 5,8 C 5,6 C 79 % 79 % 994 hPa 0,4 l/m 0,0 km/h (0 Bft) N 1,00 h 2,3 C 5,8 C
31.12.2005 15:00 5,3 C 5,2 C 81 % 80 % 994 hPa 0,0 l/m 0,0 km/h (0 Bft) N 1,00 h 2,2 C 5,3 C
31.12.2005 16:00 5,2 C 4,9 C 82 % 83 % 993 hPa 0,0 l/m 0,0 km/h (0 Bft) N 1,00 h 2,4 C 5,2 C
31.12.2005 17:00 5,1 C 4,8 C 82 % 84 % 993 hPa 0,0 l/m 0,0 km/h (0 Bft) N 1,00 h 2,4 C 5,1 C
31.12.2005 18:00 4,5 C 4,1 C 86 % 86 % 993 hPa 0,0 l/m 0,0 km/h (0 Bft) N 1,00 h 2,3 C 4,5 C
31.12.2005 19:00 4,7 C 4,3 C 82 % 85 % 993 hPa 0,0 l/m 0,0 km/h (0 Bft) N 1,00 h 1,9 C 4,7 C
31.12.2005 20:00 4,4 C 4,1 C 82 % 84 % 993 hPa 0,0 l/m 0,0 km/h (0 Bft) N 1,00 h 1,6 C 4,4 C
31.12.2005 21:00 4,1 C 3,7 C 85 % 87 % 994 hPa 0,0 l/m 0,0 km/h (0 Bft) N 1,00 h 1,7 C 4,1 C
31.12.2005 22:00 4,2 C 3,7 C 86 % 88 % 994 hPa 0,4 l/m 0,0 km/h (0 Bft) N 1,00 h 2,0 C 4,2 C
31.12.2005 23:00 3,6 C 3,3 C 90 % 89 % 994 hPa 0,0 l/m 0,0 km/h (0 Bft) N 1,00 h 2,1 C 3,6 C
01.01.2006 00:00 3,4 C 3,0 C 91 % 90 % 994 hPa 0,0 l/m 0,0 km/h (0 Bft) N 1,00 h 2,0 C 3,4 C
01.01.2006 01:00 3,5 C 3,2 C 90 % 90 % 994 hPa 0,0 l/m 0,0 km/h (0 Bft) N 1,00 h 2,0 C 3,5 C
01.01.2006 02:00 3,5 C 3,2 C 91 % 90 % 994 hPa 0,4 l/m 0,0 km/h (0 Bft) N 1,00 h 2,1 C 3,5 C
01.01.2006 03:00 3,4 C 3,1 C 89 % 89 % 994 hPa 0,0 l/m 0,0 km/h (0 Bft) N 1,00 h 1,8 C 3,4 C
01.01.2006 04:00 3,2 C 3,0 C 89 % 89 % 995 hPa 0,0 l/m 0,0 km/h (0 Bft) N 1,00 h 1,6 C 3,2 C
01.01.2006 05:00 3,0 C 2,8 C 92 % 90 % 995 hPa 0,0 l/m 0,0 km/h (0 Bft) N 1,00 h 1,8 C 3,0 C
01.01.2006 06:00 2,9 C 2,8 C 91 % 90 % 995 hPa 0,4 l/m 0,0 km/h (0 Bft) N 1,00 h 1,7 C 2,9 C
01.01.2006 07:00 2,8 C 2,7 C 94 % 92 % 995 hPa 0,4 l/m 0,0 km/h (0 Bft) N 1,00 h 1,9 C 2,8 C
01.01.2006 08:00 3,0 C 2,8 C 94 % 92 % 995 hPa 0,0 l/m 0,0 km/h (0 Bft) N 1,00 h 2,0 C 3,0 C
01.01.2006 09:00 3,3 C 3,2 C 90 % 89 % 996 hPa 0,0 l/m 0,0 km/h (0 Bft) N 1,00 h 1,8 C 3,3 C
01.01.2006 10:00 3,7 C 3,6 C 84 % 83 % 996 hPa 0,0 l/m 0,0 km/h (0 Bft) N 1,15 h 1,2 C 3,7 C
01.01.2006 11:00 4,5 C 4,8 C 75 % 73 % 996 hPa 0,0 l/m 0,0 km/h (0 Bft) N 1,00 h 0,5 C 4,5 C
01.01.2006 12:00 3,7 C 3,6 C 84 % 82 % 996 hPa 1,1 l/m 0,0 km/h (0 Bft) N 1,00 h 1,2 C 3,7 C
01.01.2006 13:00 3,3 C 3,3 C 87 % 85 % 995 hPa 0,4 l/m 0,0 km/h (0 Bft) N 1,00 h 1,4 C 3,3 C
01.01.2006 14:00 3,2 C 3,2 C 89 % 86 % 995 hPa 0,0 l/m 0,0 km/h (0 Bft) N 1,00 h 1,5 C 3,2 C
01.01.2006 15:00 3,2 C 3,2 C 90 % 87 % 995 hPa 0,4 l/m 0,0 km/h (0 Bft) N 1,00 h 1,8 C 3,2 C
01.01.2006 16:00 3,3 C 3,2 C 90 % 87 % 996 hPa 0,0 l/m 0,0 km/h (0 Bft) N 1,00 h 1,8 C 3,3 C
01.01.2006 17:00 3,3 C 3,2 C 92 % 89 % 996 hPa 0,4 l/m 0,0 km/h (0 Bft) N 1,00 h 2,1 C 3,3 C
01.01.2006 18:00 3,4 C 3,2 C 93 % 91 % 997 hPa 0,0 l/m 0,0 km/h (0 Bft) N 1,00 h 2,4 C 3,4 C
01.01.2006 19:00 3,5 C 3,3 C 94 % 92 % 998 hPa 0,4 l/m 0,0 km/h (0 Bft) N 1,00 h 2,6 C 3,5 C
01.01.2006 20:00 3,3 C 3,1 C 94 % 92 % 999 hPa 0,0 l/m 0,0 km/h (0 Bft) N 1,00 h 2,4 C 3,3 C
01.01.2006 21:00 3,3 C 3,1 C 94 % 92 % 1000 hPa 0,0 l/m 0,0 km/h (0 Bft) N 1,00 h 2,4 C 3,3 C
01.01.2006 22:00 3,2 C 3,1 C 95 % 92 % 1001 hPa 0,0 l/m 0,0 km/h (0 Bft) N 1,00 h 2,4 C 3,2 C
01.01.2006 23:00 3,2 C 3,0 C 95 % 93 % 1002 hPa 0,0 l/m 0,0 km/h (0 Bft) N 1,00 h 2,5 C 3,2 C
Min-Datum _ 29.12.05 29.12.05 29.12.05 29.12.05 31.12.05 - 26.12.05 - - 29.12.05 29.12.05
_ Min-Zeit 03:00 03:00 13:01 14:31 16:16 - 00:01 - - 03:00 03:00
Minimum _ -10,2 C -11,0 C 32 % 32 % 993 hPa - 0,0 km/h (0 Bft) - - -13,6 C -10,2 C
Max-Datum _ 31.12.05 31.12.05 31.12.05 31.12.05 26.12.05 01.01.06 30.12.05 - 01.01.06 31.12.05 31.12.05
_ Max-Zeit 14:01 14:46 03:01 06:01 00:01 12:05 22:16 - 10:05 10:31 14:01
Maximum _ 5,8 C 5,7 C 95 % 95 % 1013 hPa 1,1 l/m 0,2 km/h
N (0 Bft)
- 0,32 h 4,5 C 5,8 C
Durchschnitt _ -1,0 C -1,3 C 80 % 81 % 1002 hPa #4,7 l/m 0,0 km/h (0 Bft) N #57:01 h -4,2 C -1,0 C
©2001-2005 Bettendroffer Claude